sensor_id;sensor_type;location;lat;lon;timestamp;P1;P2;P0
68198;PMS7003;55021;51.554;17.044;2023-05-07T00:01:36;37.75;30.50;18.75
68198;PMS7003;55021;51.554;17.044;2023-05-07T00:16:39;41.50;32.50;20.75
68198;PMS7003;55021;51.554;17.044;2023-05-07T00:31:41;36.25;31.50;19.50
68198;PMS7003;55021;51.554;17.044;2023-05-07T00:46:44;34.50;30.50;17.75
68198;PMS7003;55021;51.554;17.044;2023-05-07T01:01:46;36.25;28.00;15.75
68198;PMS7003;55021;51.554;17.044;2023-05-07T01:16:49;35.00;30.75;18.00
68198;PMS7003;55021;51.554;17.044;2023-05-07T01:31:51;28.50;27.00;17.00
68198;PMS7003;55021;51.554;17.044;2023-05-07T01:46:54;34.00;29.00;16.50
68198;PMS7003;55021;51.554;17.044;2023-05-07T02:01:58;31.25;26.00;15.00
68198;PMS7003;55021;51.554;17.044;2023-05-07T02:17:00;29.50;26.50;16.75
68198;PMS7003;55021;51.554;17.044;2023-05-07T02:32:03;35.00;29.00;14.75
68198;PMS7003;55021;51.554;17.044;2023-05-07T02:47:05;29.75;22.75;15.00
68198;PMS7003;55021;51.554;17.044;2023-05-07T03:02:08;27.00;26.50;15.25
68198;PMS7003;55021;51.554;17.044;2023-05-07T03:17:10;26.50;25.00;14.25
68198;PMS7003;55021;51.554;17.044;2023-05-07T03:32:12;21.75;21.00;13.00
68198;PMS7003;55021;51.554;17.044;2023-05-07T03:47:15;27.75;21.50;14.25
68198;PMS7003;55021;51.554;17.044;2023-05-07T04:02:18;34.50;29.50;17.25
68198;PMS7003;55021;51.554;17.044;2023-05-07T04:17:20;44.25;37.50;21.00
68198;PMS7003;55021;51.554;17.044;2023-05-07T04:32:22;42.50;32.00;18.00
68198;PMS7003;55021;51.554;17.044;2023-05-07T04:47:25;39.50;32.50;18.75
68198;PMS7003;55021;51.554;17.044;2023-05-07T05:02:27;40.00;33.50;19.50
68198;PMS7003;55021;51.554;17.044;2023-05-07T05:17:30;38.75;34.25;21.00
68198;PMS7003;55021;51.554;17.044;2023-05-07T05:32:32;43.00;35.00;20.75
68198;PMS7003;55021;51.554;17.044;2023-05-07T05:47:35;36.00;31.50;18.50
68198;PMS7003;55021;51.554;17.044;2023-05-07T06:02:37;31.25;31.00;17.25
68198;PMS7003;55021;51.554;17.044;2023-05-07T06:17:39;36.50;32.75;18.75
68198;PMS7003;55021;51.554;17.044;2023-05-07T06:32:42;34.50;28.75;15.50
68198;PMS7003;55021;51.554;17.044;2023-05-07T06:47:44;37.75;31.75;18.50
68198;PMS7003;55021;51.554;17.044;2023-05-07T07:02:47;36.75;29.25;15.00
68198;PMS7003;55021;51.554;17.044;2023-05-07T07:33:30;29.75;26.00;14.25
68198;PMS7003;55021;51.554;17.044;2023-05-07T07:48:32;35.75;32.25;18.00
68198;PMS7003;55021;51.554;17.044;2023-05-07T08:03:35;28.00;24.00;14.00
68198;PMS7003;55021;51.554;17.044;2023-05-07T08:18:38;29.50;26.00;15.50
68198;PMS7003;55021;51.554;17.044;2023-05-07T08:33:40;41.25;34.50;22.75
68198;PMS7003;55021;51.554;17.044;2023-05-07T08:48:43;50.50;37.25;22.00
68198;PMS7003;55021;51.554;17.044;2023-05-07T09:03:51;41.00;36.75;23.25
68198;PMS7003;55021;51.554;17.044;2023-05-07T09:18:57;36.25;34.00;20.00
68198;PMS7003;55021;51.554;17.044;2023-05-07T09:34:04;37.75;30.25;19.25
68198;PMS7003;55021;51.554;17.044;2023-05-07T10:04:35;31.00;28.25;17.25
68198;PMS7003;55021;51.554;17.044;2023-05-07T10:19:41;26.00;24.75;16.75
68198;PMS7003;55021;51.554;17.044;2023-05-07T10:35:06;31.75;28.75;16.75
68198;PMS7003;55021;51.554;17.044;2023-05-07T10:50:32;25.50;23.25;16.00
68198;PMS7003;55021;51.554;17.044;2023-05-07T11:05:38;26.25;24.00;15.00
68198;PMS7003;55021;51.554;17.044;2023-05-07T11:36:04;31.25;26.75;18.25
68198;PMS7003;55021;51.554;17.044;2023-05-07T11:51:07;25.00;24.50;16.50
68198;PMS7003;55021;51.554;17.044;2023-05-07T12:37:27;24.00;24.00;15.00
68198;PMS7003;55021;51.554;17.044;2023-05-07T12:52:33;24.00;21.25;12.25
68198;PMS7003;55021;51.554;17.044;2023-05-07T13:07:36;17.50;16.25;10.00
68198;PMS7003;55021;51.554;17.044;2023-05-07T13:22:39;24.50;19.00;11.00
68198;PMS7003;55021;51.554;17.044;2023-05-07T13:37:45;19.50;17.50;10.00
68198;PMS7003;55021;51.554;17.044;2023-05-07T13:52:47;18.75;17.25;11.00
68198;PMS7003;55021;51.554;17.044;2023-05-07T14:07:58;20.50;17.75;11.25
68198;PMS7003;55021;51.554;17.044;2023-05-07T14:23:01;16.00;15.00;10.00
68198;PMS7003;55021;51.554;17.044;2023-05-07T14:38:03;20.00;16.50;9.00
68198;PMS7003;55021;51.554;17.044;2023-05-07T15:08:28;20.75;18.50;12.00
68198;PMS7003;55021;51.554;17.044;2023-05-07T15:23:33;18.25;17.00;10.00
68198;PMS7003;55021;51.554;17.044;2023-05-07T16:09:33;16.25;14.50;6.25
68198;PMS7003;55021;51.554;17.044;2023-05-07T16:24:57;16.50;14.25;8.50
68198;PMS7003;55021;51.554;17.044;2023-05-07T16:40:01;18.00;14.00;8.00
68198;PMS7003;55021;51.554;17.044;2023-05-07T16:55:14;18.00;15.00;9.25
68198;PMS7003;55021;51.554;17.044;2023-05-07T17:10:23;17.00;15.25;8.75
68198;PMS7003;55021;51.554;17.044;2023-05-07T17:25:37;16.50;16.50;9.25
68198;PMS7003;55021;51.554;17.044;2023-05-07T17:56:03;15.50;15.00;8.00
68198;PMS7003;55021;51.554;17.044;2023-05-07T18:11:08;16.75;15.75;9.25
68198;PMS7003;55021;51.554;17.044;2023-05-07T18:26:11;15.50;14.75;7.75
68198;PMS7003;55021;51.554;17.044;2023-05-07T18:41:19;15.25;13.50;7.75
68198;PMS7003;55021;51.554;17.044;2023-05-07T18:56:23;13.00;13.00;7.00
68198;PMS7003;55021;51.554;17.044;2023-05-07T19:11:26;12.00;11.50;6.25
68198;PMS7003;55021;51.554;17.044;2023-05-07T19:26:41;13.00;13.00;7.00
68198;PMS7003;55021;51.554;17.044;2023-05-07T19:41:45;15.25;15.25;8.00
68198;PMS7003;55021;51.554;17.044;2023-05-07T20:18:46;17.75;16.75;10.25
68198;PMS7003;55021;51.554;17.044;2023-05-07T20:49:01;12.75;12.00;6.50
68198;PMS7003;55021;51.554;17.044;2023-05-07T21:04:03;18.25;16.50;9.25
68198;PMS7003;55021;51.554;17.044;2023-05-07T21:19:06;33.25;29.50;15.50
68198;PMS7003;55021;51.554;17.044;2023-05-07T22:05:10;35.50;28.50;16.25
68198;PMS7003;55021;51.554;17.044;2023-05-07T22:20:13;24.50;19.25;9.75
68198;PMS7003;55021;51.554;17.044;2023-05-07T22:35:16;26.00;20.25;10.25
68198;PMS7003;55021;51.554;17.044;2023-05-07T22:50:19;23.75;19.00;9.25
68198;PMS7003;55021;51.554;17.044;2023-05-07T23:05:22;25.00;19.50;11.00
68198;PMS7003;55021;51.554;17.044;2023-05-07T23:20:24;20.00;18.25;9.75
68198;PMS7003;55021;51.554;17.044;2023-05-07T23:35:27;23.25;18.00;9.00
68198;PMS7003;55021;51.554;17.044;2023-05-07T23:50:29;17.75;17.75;9.25
